Wakefield, Nebraska
Current Conditions -  °F | °C
As of 10:15 PM on Sunday 23 Nov 2014 (Local Time) from KLCG Reporting Station
Overcast Overcast  
Wind Chill: 19°   Ceiling: 2900
Heat Index: 32°   Visibility: 10mi
Dew Point: 22°   Wind: 23mph
Humidity: 68%   Direction: 330°NNW
Pressure: 29.57"   Gusts: 29mph
Location:  42.27°N, 96.87°W
Report Text: KLCG 240415Z AUTO 33020G25KT 10SM BKN029 OVC043 00/M05 A2957 RMK AO2 T00001053
Loading
Personal Weather Stations






























Interactive Weather Map New forecast layout! Learn more

10-Day Weather Forecast

Advertisements
Track Severe Weather on mobile